createdAt,value
2022-10-19T00:00:13.971Z,99.99
2022-10-19T00:01:13.953Z,99.99
2022-10-19T00:02:14.046Z,99.99
2022-10-19T00:03:13.910Z,99.99
2022-10-19T00:04:13.903Z,99.99
2022-10-19T00:05:13.868Z,99.99
2022-10-19T00:06:13.855Z,99.99
2022-10-19T00:07:13.831Z,99.99
2022-10-19T00:08:13.816Z,99.99
2022-10-19T00:09:13.791Z,99.99
2022-10-19T00:10:13.773Z,99.99
2022-10-19T00:11:13.752Z,99.99
2022-10-19T00:12:13.733Z,99.99
2022-10-19T00:13:13.711Z,99.99
2022-10-19T00:14:13.694Z,99.99
2022-10-19T00:15:13.674Z,99.99
2022-10-19T00:16:13.655Z,99.99
2022-10-19T00:17:13.634Z,99.99
2022-10-19T00:18:13.640Z,99.99
2022-10-19T00:19:13.600Z,99.99
2022-10-19T00:20:13.577Z,99.99
2022-10-19T00:21:13.559Z,99.99
2022-10-19T00:22:14.149Z,99.99
2022-10-19T00:23:13.523Z,99.99
2022-10-19T00:24:13.494Z,99.99
2022-10-19T00:25:13.474Z,99.99
2022-10-19T00:26:13.463Z,99.99
2022-10-19T00:27:13.441Z,99.99
2022-10-19T00:28:13.421Z,99.99
2022-10-19T00:29:13.510Z,99.99
2022-10-19T00:30:13.381Z,99.99
2022-10-19T00:31:13.359Z,99.99
2022-10-19T00:32:13.345Z,99.99
2022-10-19T00:33:13.325Z,99.99
2022-10-19T00:34:13.323Z,99.99
2022-10-19T00:35:13.287Z,99.99
2022-10-19T00:36:13.265Z,99.99
2022-10-19T00:37:13.241Z,99.99
2022-10-19T00:38:13.227Z,99.99
2022-10-19T00:39:13.204Z,99.99
2022-10-19T00:40:13.187Z,99.99
2022-10-19T00:41:13.160Z,99.99
2022-10-19T00:42:13.144Z,99.99
2022-10-19T00:43:13.125Z,99.99
2022-10-19T00:44:13.105Z,99.99
2022-10-19T00:45:13.095Z,99.99
2022-10-19T00:46:13.065Z,99.99
2022-10-19T00:47:13.045Z,99.99
2022-10-19T00:48:13.026Z,99.99
2022-10-19T00:49:13.011Z,99.99
2022-10-19T00:50:13.009Z,99.99
2022-10-19T00:51:12.968Z,99.99
2022-10-19T00:52:12.947Z,99.99
2022-10-19T00:53:12.930Z,99.99
2022-10-19T00:54:12.910Z,99.99
2022-10-19T00:55:12.891Z,99.99
2022-10-19T00:56:12.866Z,99.99
2022-10-19T00:57:12.849Z,99.99
2022-10-19T00:58:12.830Z,99.99
2022-10-19T00:59:12.812Z,99.99
2022-10-19T01:00:12.791Z,99.99
2022-10-19T01:01:12.827Z,99.99
2022-10-19T01:02:12.751Z,99.99
2022-10-19T01:03:12.729Z,99.99
2022-10-19T01:04:12.713Z,99.99
2022-10-19T01:05:12.693Z,99.99
2022-10-19T01:06:12.695Z,99.99
2022-10-19T01:07:12.651Z,99.99
2022-10-19T01:08:12.632Z,99.99
2022-10-19T01:09:12.611Z,99.99
2022-10-19T01:10:12.591Z,99.99
2022-10-19T01:11:12.575Z,99.99
2022-10-19T01:12:12.559Z,99.99
2022-10-19T01:13:12.534Z,99.99
2022-10-19T01:14:12.513Z,99.99
2022-10-19T01:15:12.491Z,99.99
2022-10-19T01:16:12.471Z,99.99
2022-10-19T01:17:12.455Z,99.99
2022-10-19T01:18:12.432Z,99.99
2022-10-19T01:19:12.417Z,99.99
2022-10-19T01:20:12.397Z,99.99
2022-10-19T01:21:12.374Z,99.99
2022-10-19T01:22:12.374Z,99.99
2022-10-19T01:23:12.334Z,99.99
2022-10-19T01:24:12.316Z,99.99
2022-10-19T01:25:12.290Z,99.99
2022-10-19T01:26:12.274Z,99.99
2022-10-19T01:27:12.254Z,99.99
2022-10-19T01:28:12.233Z,99.99
2022-10-19T01:29:12.252Z,99.99
2022-10-19T01:30:12.192Z,99.99
2022-10-19T01:31:12.176Z,99.99
2022-10-19T01:32:12.156Z,99.99
2022-10-19T01:33:12.133Z,99.99
2022-10-19T01:34:12.117Z,99.99
2022-10-19T01:35:12.096Z,99.99
2022-10-19T01:36:12.074Z,99.99
2022-10-19T01:37:12.058Z,99.99
2022-10-19T01:38:12.057Z,99.99
2022-10-19T01:39:12.018Z,99.99
2022-10-19T01:40:11.995Z,99.99
2022-10-19T01:41:11.974Z,99.99
2022-10-19T01:42:11.954Z,99.99
2022-10-19T01:43:11.935Z,99.99
2022-10-19T01:44:11.923Z,99.99
2022-10-19T01:45:11.901Z,99.99
2022-10-19T01:46:11.874Z,99.99
2022-10-19T01:47:11.857Z,99.99
2022-10-19T01:48:11.839Z,99.99
2022-10-19T01:49:11.815Z,99.99
2022-10-19T01:50:11.796Z,99.99
2022-10-19T01:51:11.778Z,99.99
2022-10-19T01:52:11.761Z,99.99
2022-10-19T01:53:11.735Z,99.99
2022-10-19T01:54:11.733Z,99.99
2022-10-19T01:55:11.695Z,99.99
2022-10-19T01:56:11.677Z,99.99
2022-10-19T01:57:11.652Z,99.99
2022-10-19T01:58:11.637Z,99.99
2022-10-19T01:59:11.613Z,99.99
2022-10-19T02:00:11.596Z,99.99
2022-10-19T02:02:11.561Z,99.99
2022-10-19T02:03:11.535Z,99.99
2022-10-19T02:04:11.512Z,99.99
2022-10-19T02:05:11.496Z,99.99
2022-10-19T02:06:11.473Z,99.99
2022-10-19T02:07:11.457Z,99.99
2022-10-19T02:08:11.432Z,99.99
2022-10-19T02:09:11.413Z,99.99
2022-10-19T02:10:11.496Z,99.99
2022-10-19T02:11:11.373Z,99.99
2022-10-19T02:12:11.360Z,99.99
2022-10-19T02:13:11.332Z,99.99
2022-10-19T02:14:11.314Z,99.99
2022-10-19T02:15:11.290Z,99.99
2022-10-19T02:16:11.276Z,99.99
2022-10-19T02:17:11.259Z,99.99
2022-10-19T02:18:11.236Z,99.99
2022-10-19T02:19:11.243Z,99.99
2022-10-19T02:20:11.190Z,99.99
2022-10-19T02:21:11.172Z,99.99
2022-10-19T02:22:11.153Z,99.99
2022-10-19T02:23:11.128Z,99.99
2022-10-19T02:24:11.110Z,99.99
2022-10-19T02:25:11.093Z,99.99
2022-10-19T02:26:11.091Z,99.99
2022-10-19T02:27:11.051Z,99.99
2022-10-19T02:28:11.030Z,99.99
2022-10-19T02:29:11.007Z,99.99
2022-10-19T02:30:10.998Z,99.99
2022-10-19T02:31:10.969Z,99.99
2022-10-19T02:32:10.949Z,99.99
2022-10-19T02:33:10.930Z,99.99
2022-10-19T02:34:10.913Z,99.99
2022-10-19T02:35:10.890Z,99.99
2022-10-19T02:36:10.867Z,99.99
2022-10-19T02:37:10.858Z,99.99
2022-10-19T02:38:10.831Z,99.99
2022-10-19T02:39:10.807Z,99.99
2022-10-19T02:40:10.793Z,99.99
2022-10-19T02:41:10.766Z,99.99
2022-10-19T02:42:10.774Z,99.99
2022-10-19T02:43:10.727Z,99.99
2022-10-19T02:44:10.709Z,99.99
2022-10-19T02:45:10.685Z,99.99
2022-10-19T02:46:10.667Z,99.99
2022-10-19T02:47:10.648Z,99.99
2022-10-19T02:48:10.625Z,99.99
2022-10-19T02:49:10.604Z,99.99
2022-10-19T02:50:10.591Z,99.99
2022-10-19T02:51:10.567Z,99.99
2022-10-19T02:52:10.545Z,99.99
2022-10-19T02:53:10.528Z,99.99
2022-10-19T02:54:10.501Z,99.99
2022-10-19T02:55:10.480Z,99.99
2022-10-19T02:56:10.464Z,99.99
2022-10-19T02:57:10.439Z,99.99
2022-10-19T02:58:10.448Z,99.99
2022-10-19T02:59:10.400Z,99.99
2022-10-19T03:00:10.378Z,99.99
2022-10-19T03:01:10.442Z,99.99
2022-10-19T03:02:10.338Z,99.99
2022-10-19T03:03:10.324Z,99.99
2022-10-19T03:04:10.298Z,99.99
2022-10-19T03:05:10.276Z,99.99
2022-10-19T03:06:10.258Z,99.99
2022-10-19T03:07:10.235Z,99.99
2022-10-19T03:08:10.217Z,99.99
2022-10-19T03:09:10.196Z,99.99
2022-10-19T03:10:10.176Z,99.99
2022-10-19T03:11:10.155Z,99.99
2022-10-19T03:12:10.132Z,99.99
2022-10-19T03:13:10.125Z,99.99
2022-10-19T03:14:10.114Z,99.99
2022-10-19T03:15:10.073Z,99.99
2022-10-19T03:16:10.057Z,99.99
2022-10-19T03:17:10.040Z,99.99
2022-10-19T03:18:10.012Z,99.99
2022-10-19T03:19:09.996Z,99.99
2022-10-19T03:20:09.978Z,99.99
2022-10-19T03:21:09.950Z,99.99
2022-10-19T03:22:09.928Z,99.99
2022-10-19T03:23:09.910Z,99.99
2022-10-19T03:24:09.893Z,99.99
2022-10-19T03:25:09.867Z,99.99
2022-10-19T03:26:12.143Z,99.99
2022-10-19T03:27:09.827Z,99.99
2022-10-19T03:28:09.808Z,99.99
2022-10-19T03:29:09.784Z,99.99
2022-10-19T03:30:09.786Z,99.99
2022-10-19T03:31:09.751Z,99.99
2022-10-19T03:32:09.728Z,99.99
2022-10-19T03:33:09.706Z,99.99
2022-10-19T03:34:09.686Z,99.99
2022-10-19T03:35:09.663Z,99.99
2022-10-19T03:36:09.642Z,99.99
2022-10-19T03:37:09.623Z,99.99
2022-10-19T03:38:09.603Z,99.99
2022-10-19T03:39:09.581Z,99.99
2022-10-19T03:40:09.557Z,99.99
2022-10-19T03:41:09.537Z,99.99
2022-10-19T03:42:09.519Z,99.99
2022-10-19T03:43:09.496Z,99.99
2022-10-19T03:44:09.477Z,99.99
2022-10-19T03:45:09.459Z,99.99
2022-10-19T03:46:09.472Z,99.99
2022-10-19T03:47:09.413Z,99.99
2022-10-19T03:48:09.397Z,99.99
2022-10-19T03:49:09.371Z,99.99
2022-10-19T03:50:09.355Z,99.99
2022-10-19T03:51:09.330Z,99.99
2022-10-19T03:52:09.315Z,99.99
2022-10-19T03:53:09.294Z,99.99
2022-10-19T03:54:09.273Z,99.99
2022-10-19T03:55:09.255Z,99.99
2022-10-19T03:56:09.230Z,99.99
2022-10-19T03:57:09.208Z,99.99
2022-10-19T03:58:09.189Z,99.99
2022-10-19T03:59:09.164Z,99.99
2022-10-19T04:00:09.146Z,99.99
2022-10-19T04:01:09.229Z,99.99
2022-10-19T04:02:09.127Z,99.99
2022-10-19T04:03:09.085Z,99.99
2022-10-19T04:04:09.062Z,99.99
2022-10-19T04:05:09.042Z,99.99
2022-10-19T04:06:09.018Z,99.99
2022-10-19T04:07:09.000Z,99.99
2022-10-19T04:08:08.978Z,99.99
2022-10-19T04:09:08.958Z,99.99
2022-10-19T04:10:08.939Z,99.99
2022-10-19T04:11:08.918Z,99.99
2022-10-19T04:12:08.896Z,99.99
2022-10-19T04:13:08.877Z,99.99
2022-10-19T04:15:08.837Z,99.99
2022-10-19T04:16:08.816Z,99.99
2022-10-19T04:17:08.792Z,99.99
2022-10-19T04:18:08.794Z,99.99
2022-10-19T04:19:08.754Z,99.99
2022-10-19T04:20:08.732Z,99.99
2022-10-19T04:21:08.708Z,99.99
2022-10-19T04:22:08.690Z,99.99
2022-10-19T04:23:08.698Z,99.99
2022-10-19T04:24:08.649Z,99.99
2022-10-19T04:25:08.629Z,99.99
2022-10-19T04:26:08.607Z,99.99
2022-10-19T04:27:08.589Z,99.99
2022-10-19T04:28:08.564Z,99.99
2022-10-19T04:29:08.636Z,99.99
2022-10-19T04:30:08.528Z,99.99
2022-10-19T04:31:08.506Z,99.99
2022-10-19T04:32:08.491Z,99.99
2022-10-19T04:33:08.462Z,99.99
2022-10-19T04:34:08.461Z,99.99
2022-10-19T04:35:08.421Z,99.99
2022-10-19T04:36:08.395Z,99.99
2022-10-19T04:37:08.379Z,99.99
2022-10-19T04:38:08.359Z,99.99
2022-10-19T04:39:08.343Z,99.99
2022-10-19T04:40:12.841Z,99.99
2022-10-19T04:41:08.292Z,99.99
2022-10-19T04:42:08.277Z,99.99
2022-10-19T04:43:08.253Z,99.99
2022-10-19T04:44:08.234Z,99.99
2022-10-19T04:45:08.211Z,99.99
2022-10-19T04:46:08.188Z,99.99
2022-10-19T04:47:08.171Z,99.99
2022-10-19T04:48:08.155Z,99.99
2022-10-19T04:49:08.135Z,99.99
2022-10-19T04:50:08.134Z,99.99
2022-10-19T04:51:08.087Z,99.99
2022-10-19T04:52:08.069Z,99.99
2022-10-19T04:53:08.050Z,99.99
2022-10-19T04:54:08.031Z,99.99
2022-10-19T04:55:08.010Z,99.99
2022-10-19T04:56:07.998Z,99.99
2022-10-19T04:57:07.966Z,99.99
2022-10-19T04:58:07.943Z,99.99
2022-10-19T04:59:07.925Z,99.99
2022-10-19T05:00:07.903Z,99.99
2022-10-19T05:01:07.954Z,99.99
2022-10-19T05:02:07.868Z,99.99
2022-10-19T05:03:07.843Z,99.99
2022-10-19T05:04:07.829Z,99.99
2022-10-19T05:05:07.804Z,99.99
2022-10-19T05:06:07.808Z,99.99
2022-10-19T05:07:07.757Z,99.99
2022-10-19T05:08:07.743Z,99.99
2022-10-19T05:09:07.721Z,99.99
2022-10-19T05:10:07.697Z,99.99
2022-10-19T05:11:07.681Z,99.99
2022-10-19T05:12:07.655Z,99.99
2022-10-19T05:13:07.636Z,99.99
2022-10-19T05:14:07.621Z,99.99
2022-10-19T05:15:07.601Z,99.99
2022-10-19T05:16:07.571Z,99.99
2022-10-19T05:17:07.554Z,99.99
2022-10-19T05:18:07.540Z,99.99
2022-10-19T05:19:07.510Z,99.99
2022-10-19T05:20:07.492Z,99.99
2022-10-19T05:21:07.465Z,99.99
2022-10-19T05:22:07.465Z,99.99
2022-10-19T05:23:07.540Z,99.99
2022-10-19T05:24:07.404Z,99.99
2022-10-19T05:25:07.400Z,99.99
2022-10-19T05:26:07.369Z,99.99
2022-10-19T05:27:07.343Z,99.99
2022-10-19T05:28:07.328Z,99.99
2022-10-19T05:29:07.330Z,99.99
2022-10-19T05:30:07.299Z,99.99
2022-10-19T05:31:07.261Z,99.99
2022-10-19T05:32:07.240Z,99.99
2022-10-19T05:33:07.219Z,99.99
2022-10-19T05:35:07.181Z,99.99
2022-10-19T05:36:07.158Z,99.99
2022-10-19T05:37:07.134Z,99.99
2022-10-19T05:38:07.132Z,99.99
2022-10-19T05:39:07.100Z,99.99
2022-10-19T05:40:07.082Z,99.99
2022-10-19T05:41:07.052Z,99.99
2022-10-19T05:42:07.035Z,99.99
2022-10-19T05:43:07.013Z,99.99
2022-10-19T05:44:06.990Z,99.99
2022-10-19T05:45:06.972Z,99.99
2022-10-19T05:46:06.953Z,99.99
2022-10-19T05:47:06.928Z,99.99
2022-10-19T05:48:06.908Z,99.99
2022-10-19T05:49:06.882Z,99.99
2022-10-19T05:50:06.867Z,99.99
2022-10-19T05:51:06.851Z,99.99
2022-10-19T05:52:06.824Z,99.99
2022-10-19T05:53:06.807Z,99.99
2022-10-19T05:54:06.836Z,99.99
2022-10-19T05:55:06.759Z,99.99
2022-10-19T05:56:06.741Z,99.99
2022-10-19T05:57:06.719Z,99.99
2022-10-19T05:58:06.699Z,99.99
2022-10-19T05:59:06.681Z,99.99
2022-10-19T06:00:06.672Z,99.99
2022-10-19T06:01:06.635Z,99.99
2022-10-19T06:02:06.647Z,99.99
2022-10-19T06:03:06.591Z,99.99
2022-10-19T06:04:06.627Z,99.99
2022-10-19T06:05:06.560Z,99.99
2022-10-19T06:06:06.531Z,99.99
2022-10-19T06:07:06.516Z,99.99
2022-10-19T06:08:06.490Z,99.99
2022-10-19T06:09:06.469Z,99.99
2022-10-19T06:10:06.471Z,99.99
2022-10-19T06:11:06.426Z,99.99
2022-10-19T06:12:06.405Z,99.99
2022-10-19T06:13:06.385Z,99.99
2022-10-19T06:14:06.365Z,99.99
2022-10-19T06:15:06.360Z,99.99
2022-10-19T06:16:06.321Z,99.99
2022-10-19T06:17:06.302Z,99.99
2022-10-19T06:18:06.289Z,99.99
2022-10-19T06:19:06.265Z,99.99
2022-10-19T06:20:06.243Z,99.99
2022-10-19T06:21:06.221Z,99.99
2022-10-19T06:22:06.201Z,99.99
2022-10-19T06:23:06.181Z,99.99
2022-10-19T06:24:06.160Z,99.99
2022-10-19T06:25:06.162Z,99.99
2022-10-19T06:26:06.139Z,99.99
2022-10-19T06:27:06.095Z,99.99
2022-10-19T06:28:06.080Z,99.99
2022-10-19T06:29:06.062Z,99.99
2022-10-19T06:30:06.034Z,99.99
2022-10-19T06:31:08.546Z,99.99
2022-10-19T06:32:06.001Z,99.99
2022-10-19T06:33:05.972Z,99.99
2022-10-19T06:34:05.993Z,99.99
2022-10-19T06:35:05.933Z,99.99
2022-10-19T06:36:05.914Z,99.99
2022-10-19T06:37:05.894Z,99.99
2022-10-19T06:38:05.873Z,99.99
2022-10-19T06:39:05.847Z,99.99
2022-10-19T06:40:07.201Z,99.99
2022-10-19T06:41:05.806Z,99.99
2022-10-19T06:42:05.820Z,99.99
2022-10-19T06:43:05.764Z,99.99
2022-10-19T06:44:05.753Z,99.99
2022-10-19T06:45:05.719Z,99.99
2022-10-19T06:46:05.706Z,99.99
2022-10-19T06:47:05.683Z,99.99
2022-10-19T06:48:07.640Z,99.99
2022-10-19T06:49:05.646Z,99.99
2022-10-19T06:50:05.624Z,99.99
2022-10-19T06:51:06.409Z,99.99
2022-10-19T06:52:05.579Z,99.99
2022-10-19T06:53:05.559Z,99.99
2022-10-19T06:54:05.537Z,99.99
2022-10-19T06:55:05.545Z,99.99
2022-10-19T06:56:05.497Z,99.99
2022-10-19T06:57:05.479Z,99.99
2022-10-19T06:58:05.480Z,99.99
2022-10-19T06:59:05.438Z,99.99
2022-10-19T07:00:05.413Z,99.99
2022-10-19T07:01:05.428Z,99.99
2022-10-19T07:02:05.373Z,99.99
2022-10-19T07:03:05.353Z,99.99
2022-10-19T07:04:05.346Z,99.99
2022-10-19T07:05:06.236Z,99.99
2022-10-19T07:06:05.294Z,99.99
2022-10-19T07:07:05.271Z,99.99
2022-10-19T07:08:05.349Z,99.99
2022-10-19T07:09:05.230Z,99.99
2022-10-19T07:10:05.211Z,99.99
2022-10-19T07:11:05.196Z,99.99
2022-10-19T07:12:05.169Z,99.99
2022-10-19T07:13:05.145Z,99.99
2022-10-19T07:14:05.146Z,99.99
2022-10-19T07:15:05.105Z,99.99
2022-10-19T07:16:05.100Z,99.99
2022-10-19T07:17:05.075Z,99.99
2022-10-19T07:18:05.046Z,99.99
2022-10-19T07:19:05.022Z,99.99
2022-10-19T07:20:05.007Z,99.99
2022-10-19T07:21:04.989Z,99.99
2022-10-19T07:22:04.969Z,99.99
2022-10-19T07:23:04.945Z,99.99
2022-10-19T07:24:04.923Z,99.99
2022-10-19T07:25:04.902Z,99.99
2022-10-19T07:26:04.895Z,99.99
2022-10-19T07:27:04.859Z,99.99
2022-10-19T07:28:04.840Z,99.99
2022-10-19T07:29:04.832Z,99.99
2022-10-19T07:30:04.838Z,99.99
2022-10-19T07:31:04.777Z,99.99
2022-10-19T07:32:04.764Z,99.99
2022-10-19T07:33:04.779Z,99.99
2022-10-19T07:34:04.725Z,99.99
2022-10-19T07:35:04.701Z,99.99
2022-10-19T07:36:04.682Z,99.99
2022-10-19T07:37:04.691Z,99.99
2022-10-19T07:38:04.643Z,99.99
2022-10-19T07:39:04.630Z,99.99
2022-10-19T07:40:04.605Z,99.99
2022-10-19T07:41:04.585Z,99.99
2022-10-19T07:42:04.566Z,99.99
2022-10-19T07:43:04.541Z,99.99
2022-10-19T07:44:04.530Z,99.99
2022-10-19T07:45:04.506Z,99.99
2022-10-19T07:46:04.507Z,99.99
2022-10-19T07:47:04.463Z,99.99
2022-10-19T07:48:04.447Z,99.99
2022-10-19T07:49:04.426Z,99.99
2022-10-19T07:50:04.404Z,99.99
2022-10-19T07:51:04.385Z,99.99
2022-10-19T07:52:04.366Z,99.99
2022-10-19T07:53:04.344Z,99.99
2022-10-19T07:54:04.332Z,99.99
2022-10-19T07:55:04.318Z,99.99
2022-10-19T07:56:04.285Z,99.99
2022-10-19T07:57:04.266Z,99.99
2022-10-19T07:58:04.252Z,99.99
2022-10-19T07:59:04.231Z,99.99
2022-10-19T08:00:04.213Z,99.99
2022-10-19T08:01:04.205Z,99.99
2022-10-19T08:02:04.304Z,99.99
2022-10-19T08:03:57.502Z,99.99
2022-10-19T08:05:07.690Z,99.99
2022-10-19T08:06:04.096Z,99.99
2022-10-19T08:07:04.076Z,99.99
2022-10-19T08:08:04.063Z,99.99
2022-10-19T08:09:04.112Z,99.99
2022-10-19T08:10:04.027Z,99.99
2022-10-19T08:11:04.006Z,99.99
2022-10-19T08:12:03.986Z,99.99
2022-10-19T08:13:03.970Z,99.99
2022-10-19T08:14:04.275Z,99.99
2022-10-19T08:15:03.924Z,99.99
2022-10-19T08:16:03.915Z,99.99
2022-10-19T08:17:03.890Z,99.99
2022-10-19T08:18:03.892Z,99.99
2022-10-19T08:19:03.859Z,99.99
2022-10-19T08:20:03.833Z,99.99
2022-10-19T08:21:03.816Z,99.99
2022-10-19T08:22:03.799Z,99.99
2022-10-19T08:23:03.778Z,99.99
2022-10-19T08:24:03.762Z,99.99
2022-10-19T08:25:03.750Z,99.99
2022-10-19T08:26:03.729Z,99.99
2022-10-19T08:27:03.714Z,99.99
2022-10-19T08:28:03.696Z,99.99
2022-10-19T08:29:03.678Z,99.99
2022-10-19T08:30:03.667Z,99.99
2022-10-19T08:31:03.654Z,99.99
2022-10-19T08:32:03.630Z,99.99
2022-10-19T08:33:03.612Z,99.99
2022-10-19T08:34:03.615Z,99.99
2022-10-19T08:35:07.209Z,99.99
2022-10-19T08:36:03.570Z,99.99
2022-10-19T08:37:10.287Z,99.99
2022-10-19T08:38:03.534Z,99.99
2022-10-19T08:39:03.519Z,99.99
2022-10-19T08:40:03.506Z,99.99
2022-10-19T08:41:03.497Z,99.99
2022-10-19T08:42:03.492Z,98.58
2022-10-19T08:43:03.457Z,96.66
2022-10-19T08:44:06.259Z,96.70
2022-10-19T08:45:03.425Z,97.95
2022-10-19T08:46:03.412Z,98.91
2022-10-19T08:47:04.489Z,98.91
2022-10-19T08:48:03.382Z,99.20
2022-10-19T08:49:03.366Z,99.44
2022-10-19T08:50:03.373Z,99.68
2022-10-19T08:51:03.330Z,99.29
2022-10-19T08:52:03.326Z,98.91
2022-10-19T08:53:03.303Z,98.82
2022-10-19T08:54:03.290Z,98.53
2022-10-19T08:55:03.275Z,97.47
2022-10-19T08:56:04.633Z,95.84
2022-10-19T08:57:03.244Z,96.70
2022-10-19T08:58:03.228Z,98.00
2022-10-19T08:59:03.215Z,96.94
2022-10-19T09:00:03.200Z,95.98
2022-10-19T09:01:03.185Z,95.45
2022-10-19T09:02:03.173Z,95.03
2022-10-19T09:03:03.151Z,95.26
2022-10-19T09:04:03.135Z,94.78
2022-10-19T09:05:03.124Z,92.86
2022-10-19T09:06:03.142Z,91.57
2022-10-19T09:07:03.099Z,91.38
2022-10-19T09:08:03.083Z,93.25
2022-10-19T09:09:03.095Z,95.31
2022-10-19T09:10:03.064Z,96.85
2022-10-19T09:11:03.032Z,97.71
2022-10-19T09:12:03.020Z,97.81
2022-10-19T09:13:03.007Z,96.85
2022-10-19T09:14:05.399Z,92.62
2022-10-19T09:15:02.974Z,89.78
2022-10-19T09:16:02.960Z,88.77
2022-10-19T09:17:02.948Z,88.19
2022-10-19T09:18:02.939Z,85.69
2022-10-19T09:19:02.927Z,84.73
2022-10-19T09:20:02.911Z,85.60
2022-10-19T09:21:02.906Z,85.35
2022-10-19T09:22:02.895Z,81.88
2022-10-19T09:23:02.868Z,79.56
2022-10-19T09:24:02.855Z,77.19
2022-10-19T09:25:02.839Z,75.53
2022-10-19T09:26:02.827Z,72.48
2022-10-19T09:27:02.821Z,72.48
2022-10-19T09:28:02.863Z,71.74
2022-10-19T09:29:02.788Z,69.13
2022-10-19T09:30:02.799Z,69.71
2022-10-19T09:31:02.765Z,68.46
2022-10-19T09:32:02.758Z,68.26
2022-10-19T09:33:02.743Z,66.75
2022-10-19T09:34:02.733Z,65.20
2022-10-19T09:35:02.745Z,64.89
2022-10-19T09:36:02.705Z,63.69
2022-10-19T09:37:02.772Z,64.63
2022-10-19T09:38:02.704Z,65.85
2022-10-19T09:39:02.670Z,65.20
2022-10-19T09:40:02.662Z,65.66
2022-10-19T09:41:02.650Z,65.40
2022-10-19T09:42:02.643Z,61.40
2022-10-19T09:43:02.634Z,59.46
2022-10-19T09:44:02.620Z,59.14
2022-10-19T09:45:02.621Z,59.56
2022-10-19T09:46:02.611Z,60.99
2022-10-19T09:47:02.590Z,60.53
2022-10-19T09:48:07.082Z,60.34
2022-10-19T09:49:02.569Z,60.63
2022-10-19T09:50:02.560Z,59.76
2022-10-19T09:51:02.554Z,59.44
2022-10-19T09:52:02.542Z,60.47
2022-10-19T09:53:02.528Z,60.89
2022-10-19T09:54:02.538Z,61.98
2022-10-19T09:55:02.506Z,60.47
2022-10-19T09:56:02.501Z,60.40
2022-10-19T09:57:02.486Z,59.56
2022-10-19T09:58:02.481Z,59.27
2022-10-19T09:59:02.489Z,57.37
2022-10-19T10:00:02.464Z,58.89
2022-10-19T10:01:02.458Z,59.28
2022-10-19T10:03:02.427Z,60.61
2022-10-19T10:04:02.419Z,62.02
2022-10-19T10:05:02.408Z,64.40
2022-10-19T10:06:02.403Z,65.08
2022-10-19T10:07:02.390Z,65.37
2022-10-19T10:08:02.378Z,64.37
2022-10-19T10:09:02.571Z,64.76
2022-10-19T10:10:02.381Z,65.17
2022-10-19T10:11:02.344Z,64.21
2022-10-19T10:12:02.334Z,64.34
2022-10-19T10:13:02.322Z,64.05
2022-10-19T10:14:04.970Z,63.34
2022-10-19T10:15:02.305Z,63.70
2022-10-19T10:16:02.300Z,65.27
2022-10-19T10:17:02.286Z,68.09
2022-10-19T10:18:02.270Z,68.54
2022-10-19T10:19:02.258Z,68.06
2022-10-19T10:20:02.268Z,68.54
2022-10-19T10:21:03.843Z,68.48
2022-10-19T10:22:02.226Z,67.61
2022-10-19T10:23:02.217Z,66.36
2022-10-19T10:24:02.202Z,65.98
2022-10-19T10:25:02.195Z,66.65
2022-10-19T10:26:02.198Z,67.51
2022-10-19T10:27:02.169Z,70.30
2022-10-19T10:28:02.157Z,70.68
2022-10-19T10:29:02.142Z,70.53
2022-10-19T10:30:02.139Z,70.34
2022-10-19T10:31:02.120Z,68.44
2022-10-19T10:32:02.106Z,68.54
2022-10-19T10:33:09.438Z,67.65
2022-10-19T10:34:10.981Z,67.93
2022-10-19T10:35:02.105Z,68.19
2022-10-19T10:36:02.062Z,69.82
2022-10-19T10:37:02.049Z,71.67
2022-10-19T10:38:02.040Z,72.71
2022-10-19T10:40:03.849Z,68.99
2022-10-19T10:41:02.005Z,69.15
2022-10-19T10:42:02.006Z,69.73
2022-10-19T10:43:01.972Z,70.46
2022-10-19T10:44:04.588Z,71.58
2022-10-19T10:45:01.951Z,72.99
2022-10-19T10:46:01.934Z,73.60
2022-10-19T10:47:01.922Z,73.85
2022-10-19T10:48:01.974Z,75.00
2022-10-19T10:49:01.897Z,75.13
2022-10-19T10:50:01.888Z,74.21
2022-10-19T10:51:01.873Z,72.48
2022-10-19T10:52:01.862Z,72.71
2022-10-19T10:53:01.842Z,73.47
2022-10-19T10:54:01.831Z,72.61
2022-10-19T10:55:01.821Z,72.80
2022-10-19T10:56:01.812Z,73.00
2022-10-19T10:57:06.370Z,71.75
2022-10-19T10:58:01.875Z,72.09
2022-10-19T10:59:01.764Z,72.86
2022-10-19T11:00:01.756Z,73.25
2022-10-19T11:01:06.653Z,73.44
2022-10-19T11:02:01.797Z,73.67
2022-10-19T11:03:01.711Z,72.61
2022-10-19T11:04:01.701Z,72.42
2022-10-19T11:05:01.684Z,71.26
2022-10-19T11:06:01.670Z,71.52
2022-10-19T11:07:01.655Z,72.23
2022-10-19T11:08:01.646Z,72.13
2022-10-19T11:09:01.724Z,73.00
2022-10-19T11:10:01.628Z,72.55
2022-10-19T11:11:01.603Z,71.97
2022-10-19T11:12:01.591Z,71.40
2022-10-19T11:13:01.579Z,70.66
2022-10-19T11:14:01.585Z,69.79
2022-10-19T11:15:01.565Z,69.67
2022-10-19T11:16:01.544Z,70.21
2022-10-19T11:17:01.536Z,71.04
2022-10-19T11:18:01.514Z,72.48
2022-10-19T11:19:01.622Z,74.33
2022-10-19T11:20:01.488Z,75.67
2022-10-19T11:21:01.474Z,76.44
2022-10-19T11:22:01.463Z,76.21
2022-10-19T11:23:01.447Z,77.65
2022-10-19T11:24:01.431Z,77.69
2022-10-19T11:25:01.423Z,77.69
2022-10-19T11:26:01.412Z,77.59
2022-10-19T11:27:01.389Z,77.50
2022-10-19T11:28:01.381Z,76.54
2022-10-19T11:29:01.359Z,77.15
2022-10-19T11:30:01.452Z,76.67
2022-10-19T11:31:01.340Z,75.65
2022-10-19T11:32:01.327Z,74.30
2022-10-19T11:33:01.305Z,74.73
2022-10-19T11:34:01.292Z,72.90
2022-10-19T11:35:01.279Z,72.13
2022-10-19T11:36:01.264Z,73.09
2022-10-19T11:37:01.251Z,72.13
2022-10-19T11:38:18.797Z,73.13
2022-10-19T11:39:01.225Z,72.36
2022-10-19T11:40:01.210Z,70.82
2022-10-19T11:41:18.210Z,70.34
2022-10-19T11:42:01.184Z,71.17
2022-10-19T11:43:01.173Z,72.55
2022-10-19T11:44:01.156Z,73.22
2022-10-19T11:45:01.140Z,72.88
2022-10-19T11:46:01.212Z,71.53
2022-10-19T11:47:01.119Z,70.12
2022-10-19T11:48:01.103Z,70.54
2022-10-19T11:49:01.090Z,70.06
2022-10-19T11:50:01.132Z,70.09
2022-10-19T11:51:16.951Z,68.52
2022-10-19T11:52:01.048Z,67.90
2022-10-19T11:53:01.034Z,69.73
2022-10-19T11:54:01.025Z,70.02
2022-10-19T11:55:01.009Z,70.66
2022-10-19T11:56:00.999Z,70.24
2022-10-19T11:57:04.795Z,71.20
2022-10-19T11:58:00.971Z,71.65
2022-10-19T11:59:01.014Z,72.38
2022-10-19T12:00:13.524Z,73.63
2022-10-19T12:01:00.940Z,74.50
2022-10-19T12:02:01.003Z,74.02
2022-10-19T12:03:03.712Z,74.40
2022-10-19T12:04:00.890Z,74.60
2022-10-19T12:05:00.881Z,74.79
2022-10-19T12:06:00.866Z,74.63
2022-10-19T12:07:00.925Z,74.63
2022-10-19T12:08:00.837Z,72.52
2022-10-19T12:09:00.890Z,73.00
2022-10-19T12:10:00.809Z,72.52
2022-10-19T12:11:00.801Z,72.26
2022-10-19T12:12:00.783Z,72.84
2022-10-19T12:13:00.773Z,71.78
2022-10-19T12:14:00.761Z,71.59
2022-10-19T12:15:00.743Z,73.03
2022-10-19T12:16:00.724Z,71.97
2022-10-19T12:17:00.815Z,72.42
2022-10-19T12:18:00.728Z,72.42
2022-10-19T12:19:00.687Z,72.80
2022-10-19T12:20:00.675Z,73.80
2022-10-19T12:21:00.664Z,72.36
2022-10-19T12:22:00.650Z,70.30
2022-10-19T12:23:00.634Z,71.65
2022-10-19T12:24:00.633Z,72.13
2022-10-19T12:25:00.609Z,73.77
2022-10-19T12:26:00.603Z,74.05
2022-10-19T12:27:00.667Z,73.38
2022-10-19T12:28:00.568Z,73.22
2022-10-19T12:29:00.556Z,73.03
2022-10-19T12:30:00.539Z,73.00
2022-10-19T12:31:00.531Z,72.67
2022-10-19T12:32:00.520Z,72.67
2022-10-19T12:33:00.503Z,73.92
2022-10-19T12:34:00.508Z,74.30
2022-10-19T12:35:00.482Z,74.30
2022-10-19T12:36:00.468Z,74.21
2022-10-19T12:37:00.447Z,73.63
2022-10-19T12:38:00.431Z,74.50
2022-10-19T12:39:00.744Z,74.50
2022-10-19T12:40:00.407Z,74.21
2022-10-19T12:41:00.396Z,74.40
2022-10-19T12:42:00.378Z,74.50
2022-10-19T12:43:00.366Z,74.69
2022-10-19T12:44:00.352Z,74.30
2022-10-19T12:45:00.336Z,73.19
2022-10-19T12:46:00.339Z,73.06
2022-10-19T12:47:01.061Z,73.44
2022-10-19T12:48:00.291Z,73.35
2022-10-19T12:49:00.289Z,74.60
2022-10-19T12:50:00.293Z,75.27
2022-10-19T12:51:00.254Z,75.65
2022-10-19T12:52:00.246Z,74.50
2022-10-19T12:53:00.227Z,74.30
2022-10-19T12:54:00.209Z,74.69
2022-10-19T12:55:00.198Z,74.50
2022-10-19T12:56:00.189Z,74.30
2022-10-19T12:57:00.254Z,73.92
2022-10-19T12:58:00.157Z,73.35